createdAt,value
2022-10-30T00:00:22.011Z,100.00
2022-10-30T00:02:48.728Z,100.00
2022-10-30T00:05:15.511Z,100.00
2022-10-30T00:07:41.832Z,100.00
2022-10-30T00:10:08.604Z,100.00
2022-10-30T00:12:36.911Z,100.00
2022-10-30T00:15:03.754Z,100.00
2022-10-30T00:17:30.107Z,100.00
2022-10-30T00:19:56.472Z,100.00
2022-10-30T00:22:24.857Z,100.00
2022-10-30T00:24:51.189Z,100.00
2022-10-30T00:27:17.886Z,100.00
2022-10-30T00:29:44.224Z,100.00
2022-10-30T00:32:10.765Z,100.00
2022-10-30T00:34:38.079Z,100.00
2022-10-30T00:37:04.401Z,100.00
2022-10-30T00:39:30.817Z,100.00
2022-10-30T00:41:57.187Z,100.00
2022-10-30T00:44:36.020Z,100.00
2022-10-30T00:47:04.760Z,100.00
2022-10-30T00:49:35.727Z,100.00
2022-10-30T00:52:03.497Z,100.00
2022-10-30T00:54:29.926Z,100.00
2022-10-30T00:56:56.378Z,100.00
2022-10-30T00:59:32.932Z,100.00
2022-10-30T01:02:01.082Z,100.00
2022-10-30T01:04:30.103Z,100.00
2022-10-30T01:06:58.365Z,100.00
2022-10-30T01:09:24.850Z,100.00
2022-10-30T01:11:51.210Z,100.00
2022-10-30T01:14:19.580Z,100.00
2022-10-30T01:16:55.999Z,100.00
2022-10-30T01:19:22.281Z,100.00
2022-10-30T01:21:51.439Z,100.00
2022-10-30T01:24:20.632Z,100.00
2022-10-30T01:27:00.259Z,100.00
2022-10-30T01:29:29.538Z,100.00
2022-10-30T01:31:58.678Z,100.00
2022-10-30T01:34:31.035Z,100.00
2022-10-30T01:37:01.827Z,100.00
2022-10-30T01:39:31.579Z,100.00
2022-10-30T01:41:57.923Z,100.00
2022-10-30T01:44:31.801Z,100.00
2022-10-30T01:47:17.008Z,100.00
2022-10-30T01:49:46.155Z,100.00
2022-10-30T01:52:22.843Z,100.00
2022-10-30T01:54:56.717Z,100.00
2022-10-30T01:57:42.462Z,100.00
2022-10-30T02:00:10.762Z,100.00
2022-10-30T02:02:37.607Z,100.00
2022-10-30T02:05:04.899Z,100.00
2022-10-30T02:07:31.508Z,100.00
2022-10-30T02:09:57.852Z,100.00
2022-10-30T02:12:24.577Z,100.00
2022-10-30T02:14:53.546Z,100.00
2022-10-30T02:17:20.125Z,100.00
2022-10-30T02:19:46.496Z,100.00
2022-10-30T02:22:12.918Z,100.00
2022-10-30T02:24:39.364Z,100.00
2022-10-30T02:27:05.695Z,100.00
2022-10-30T02:29:32.095Z,100.00
2022-10-30T02:31:58.469Z,100.00
2022-10-30T02:34:24.985Z,100.00
2022-10-30T02:36:51.359Z,100.00
2022-10-30T02:39:18.124Z,100.00
2022-10-30T02:41:44.555Z,100.00
2022-10-30T02:44:10.885Z,100.00
2022-10-30T02:46:37.203Z,100.00
2022-10-30T02:49:03.554Z,100.00
2022-10-30T02:51:31.091Z,100.00
2022-10-30T02:53:58.165Z,100.00
2022-10-30T02:56:24.600Z,100.00
2022-10-30T02:58:50.946Z,100.00
2022-10-30T03:01:19.264Z,100.00
2022-10-30T03:03:46.952Z,100.00
2022-10-30T03:06:15.594Z,100.00
2022-10-30T03:08:42.819Z,100.00
2022-10-30T03:11:10.902Z,100.00
2022-10-30T03:13:37.950Z,100.00
2022-10-30T03:16:05.772Z,100.00
2022-10-30T03:18:32.288Z,100.00
2022-10-30T03:21:00.066Z,100.00
2022-10-30T03:23:26.724Z,100.00
2022-10-30T03:25:54.296Z,100.00
2022-10-30T03:28:21.320Z,100.00
2022-10-30T03:30:47.708Z,100.00
2022-10-30T03:33:14.025Z,100.00
2022-10-30T03:35:40.470Z,100.00
2022-10-30T03:38:06.849Z,100.00
2022-10-30T03:40:34.243Z,100.00
2022-10-30T03:43:00.939Z,100.00
2022-10-30T03:45:29.537Z,100.00
2022-10-30T03:47:56.219Z,100.00
2022-10-30T03:50:22.764Z,100.00
2022-10-30T03:52:49.077Z,100.00
2022-10-30T03:55:15.427Z,100.00
2022-10-30T03:57:41.814Z,100.00
2022-10-30T04:00:08.410Z,100.00
2022-10-30T04:02:34.780Z,100.00
2022-10-30T04:05:02.082Z,100.00
2022-10-30T04:07:29.399Z,100.00
2022-10-30T04:09:55.753Z,100.00
2022-10-30T04:12:22.083Z,100.00
2022-10-30T04:14:48.382Z,100.00
2022-10-30T04:17:14.707Z,100.00
2022-10-30T04:19:41.026Z,100.00
2022-10-30T04:22:07.350Z,100.00
2022-10-30T04:24:33.888Z,100.00
2022-10-30T04:27:00.249Z,100.00
2022-10-30T04:29:26.606Z,100.00
2022-10-30T04:31:52.945Z,100.00
2022-10-30T04:34:19.457Z,100.00
2022-10-30T04:36:45.787Z,100.00
2022-10-30T04:39:12.170Z,100.00
2022-10-30T04:41:39.685Z,100.00
2022-10-30T04:44:06.438Z,100.00
2022-10-30T04:46:32.917Z,100.00
2022-10-30T04:48:59.303Z,100.00
2022-10-30T04:51:26.082Z,100.00
2022-10-30T04:53:54.171Z,100.00
2022-10-30T04:56:20.708Z,100.00
2022-10-30T04:58:47.126Z,100.00
2022-10-30T05:01:13.698Z,100.00
2022-10-30T05:03:40.289Z,100.00
2022-10-30T05:06:07.860Z,100.00
2022-10-30T05:08:34.199Z,100.00
2022-10-30T05:11:03.903Z,100.00
2022-10-30T05:13:31.209Z,100.00
2022-10-30T05:15:57.599Z,100.00
2022-10-30T05:18:24.109Z,100.00
2022-10-30T05:20:51.519Z,100.00
2022-10-30T05:23:17.879Z,100.00
2022-10-30T05:25:44.200Z,100.00
2022-10-30T05:28:10.764Z,100.00
2022-10-30T05:30:37.092Z,100.00
2022-10-30T05:33:05.130Z,100.00
2022-10-30T05:35:35.478Z,100.00
2022-10-30T05:38:02.788Z,100.00
2022-10-30T05:40:29.156Z,100.00
2022-10-30T05:42:55.980Z,100.00
2022-10-30T05:45:22.539Z,100.00
2022-10-30T05:47:59.452Z,100.00
2022-10-30T05:50:26.822Z,100.00
2022-10-30T05:53:00.151Z,100.00
2022-10-30T05:55:26.731Z,100.00
2022-10-30T05:58:00.498Z,100.00
2022-10-30T06:00:29.898Z,100.00
2022-10-30T06:03:00.849Z,100.00
2022-10-30T06:05:28.012Z,100.00
2022-10-30T06:07:54.916Z,100.00
2022-10-30T06:10:21.304Z,100.00
2022-10-30T06:12:55.360Z,100.00
2022-10-30T06:15:22.232Z,100.00
2022-10-30T06:17:48.632Z,100.00
2022-10-30T06:20:15.614Z,100.00
2022-10-30T06:22:41.983Z,100.00
2022-10-30T06:25:08.884Z,100.00
2022-10-30T06:27:35.362Z,100.00
2022-10-30T06:30:01.711Z,100.00
2022-10-30T06:32:28.071Z,100.00
2022-10-30T06:34:54.459Z,100.00
2022-10-30T06:37:20.840Z,100.00
2022-10-30T06:39:47.342Z,100.00
2022-10-30T06:42:13.706Z,100.00
2022-10-30T06:44:40.119Z,100.00
2022-10-30T06:47:06.492Z,100.00
2022-10-30T06:49:32.891Z,100.00
2022-10-30T06:51:59.218Z,100.00
2022-10-30T06:54:25.552Z,100.00
2022-10-30T06:56:51.887Z,100.00
2022-10-30T06:59:18.397Z,100.00
2022-10-30T07:01:44.872Z,100.00
2022-10-30T07:04:11.240Z,100.00
2022-10-30T07:06:37.607Z,100.00
2022-10-30T07:09:04.059Z,100.00
2022-10-30T07:11:30.371Z,100.00
2022-10-30T07:13:58.770Z,100.00
2022-10-30T07:16:25.088Z,100.00
2022-10-30T07:18:52.457Z,100.00
2022-10-30T07:21:18.795Z,100.00
2022-10-30T07:23:45.104Z,100.00
2022-10-30T07:26:11.472Z,100.00
2022-10-30T07:28:37.917Z,100.00
2022-10-30T07:31:04.322Z,100.00
2022-10-30T07:33:30.699Z,100.00
2022-10-30T07:35:59.906Z,100.00
2022-10-30T07:38:26.231Z,100.00
2022-10-30T07:40:53.663Z,100.00
2022-10-30T07:43:19.990Z,100.00
2022-10-30T07:45:46.388Z,100.00
2022-10-30T07:48:12.802Z,100.00
2022-10-30T07:50:39.108Z,100.00
2022-10-30T07:53:05.427Z,100.00
2022-10-30T07:55:31.757Z,100.00
2022-10-30T07:57:58.575Z,100.00
2022-10-30T08:00:25.323Z,100.00
2022-10-30T08:02:55.990Z,100.00
2022-10-30T08:05:27.108Z,100.00
2022-10-30T08:07:56.867Z,100.00
2022-10-30T08:10:23.784Z,100.00
2022-10-30T08:12:50.108Z,100.00
2022-10-30T08:15:16.545Z,99.71
2022-10-30T08:17:43.632Z,95.15
2022-10-30T08:20:13.207Z,97.90
2022-10-30T08:22:45.585Z,97.22
2022-10-30T08:25:12.074Z,97.86
2022-10-30T08:27:38.399Z,100.00
2022-10-30T08:30:04.966Z,100.00
2022-10-30T08:32:31.367Z,100.00
2022-10-30T08:34:57.732Z,100.00
2022-10-30T08:37:24.049Z,100.00
2022-10-30T08:39:50.366Z,98.65
2022-10-30T08:42:18.700Z,97.35
2022-10-30T08:44:45.019Z,96.03
2022-10-30T08:47:11.378Z,93.06
2022-10-30T08:49:37.742Z,94.61
2022-10-30T08:52:11.970Z,100.00
2022-10-30T08:54:38.348Z,99.85
2022-10-30T08:57:04.659Z,100.00
2022-10-30T08:59:31.163Z,99.23
2022-10-30T09:01:57.713Z,95.02
2022-10-30T09:04:24.119Z,89.52
2022-10-30T09:06:50.505Z,90.00
2022-10-30T09:09:16.872Z,83.63
2022-10-30T09:11:55.576Z,83.40
2022-10-30T09:14:21.912Z,86.37
2022-10-30T09:17:16.531Z,87.00
2022-10-30T09:19:42.882Z,83.97
2022-10-30T09:22:21.403Z,86.96
2022-10-30T09:24:48.135Z,86.89
2022-10-30T09:27:14.816Z,81.70
2022-10-30T09:29:43.238Z,81.06
2022-10-30T09:32:11.579Z,74.14
2022-10-30T09:34:39.592Z,73.82
2022-10-30T09:37:05.893Z,71.96
2022-10-30T09:39:32.302Z,68.65
2022-10-30T09:42:19.050Z,66.29
2022-10-30T09:45:08.079Z,64.50
2022-10-30T09:47:55.466Z,67.27
2022-10-30T09:50:25.914Z,65.50
2022-10-30T09:52:52.222Z,63.95
2022-10-30T09:55:21.549Z,61.23
2022-10-30T09:58:03.162Z,59.84
2022-10-30T10:00:38.046Z,59.81
2022-10-30T10:03:07.512Z,59.09
2022-10-30T10:05:45.975Z,60.89
2022-10-30T10:08:32.299Z,58.45
2022-10-30T10:11:02.505Z,59.65
2022-10-30T10:13:38.945Z,58.79
2022-10-30T10:16:18.243Z,58.70
2022-10-30T10:18:49.140Z,57.08
2022-10-30T10:21:24.577Z,58.22
2022-10-30T10:23:53.118Z,56.59
2022-10-30T10:26:24.933Z,57.88
2022-10-30T10:29:09.076Z,60.46
2022-10-30T10:32:02.813Z,59.05
2022-10-30T10:34:36.133Z,56.65
2022-10-30T10:37:02.488Z,55.61
2022-10-30T10:39:31.866Z,57.73
2022-10-30T10:42:04.058Z,58.81
2022-10-30T10:44:33.140Z,56.83
2022-10-30T10:47:04.259Z,56.05
2022-10-30T10:49:42.508Z,55.57
2022-10-30T10:52:10.096Z,55.28
2022-10-30T10:54:40.437Z,58.55
2022-10-30T10:57:12.360Z,57.86
2022-10-30T10:59:41.148Z,60.90
2022-10-30T11:02:08.595Z,57.11
2022-10-30T11:04:40.391Z,57.60
2022-10-30T11:07:31.644Z,57.87
2022-10-30T11:09:58.402Z,57.16
2022-10-30T11:12:30.792Z,57.05
2022-10-30T11:15:05.193Z,58.36
2022-10-30T11:17:45.631Z,57.24
2022-10-30T11:20:15.814Z,56.53
2022-10-30T11:22:44.587Z,55.87
2022-10-30T11:25:25.324Z,56.83
2022-10-30T11:27:56.154Z,57.99
2022-10-30T11:30:24.893Z,56.55
2022-10-30T11:32:54.267Z,56.15
2022-10-30T11:35:23.354Z,55.67
2022-10-30T11:37:51.065Z,55.64
2022-10-30T11:40:22.788Z,54.78
2022-10-30T11:42:55.002Z,55.88
2022-10-30T11:45:39.321Z,54.58
2022-10-30T11:48:20.599Z,55.79
2022-10-30T11:50:48.938Z,53.10
2022-10-30T11:53:21.686Z,54.16
2022-10-30T11:55:48.693Z,53.34
2022-10-30T11:58:35.951Z,53.84
2022-10-30T12:01:23.801Z,52.55
2022-10-30T12:03:51.175Z,54.21
2022-10-30T12:06:23.552Z,51.04
2022-10-30T12:09:16.302Z,51.28
2022-10-30T12:11:43.467Z,53.71
2022-10-30T12:14:20.342Z,54.98
2022-10-30T12:16:48.636Z,57.82
2022-10-30T12:19:16.727Z,58.90
2022-10-30T12:21:50.997Z,58.75
2022-10-30T12:24:19.176Z,59.32
2022-10-30T12:26:47.331Z,59.09
2022-10-30T12:29:16.751Z,59.61
2022-10-30T12:31:53.918Z,57.50
2022-10-30T12:34:26.181Z,57.79
2022-10-30T12:37:04.014Z,58.40
2022-10-30T12:39:50.659Z,59.36
2022-10-30T12:42:17.942Z,58.47
2022-10-30T12:44:45.702Z,60.58
2022-10-30T12:47:22.631Z,60.55
2022-10-30T12:49:55.153Z,59.47
2022-10-30T12:52:27.337Z,60.17
2022-10-30T12:55:16.760Z,59.93
2022-10-30T12:57:44.528Z,58.68
2022-10-30T13:00:20.038Z,58.56
2022-10-30T13:02:46.356Z,59.04
2022-10-30T13:05:24.505Z,58.84
2022-10-30T13:07:57.540Z,58.47
2022-10-30T13:10:27.031Z,59.27
2022-10-30T13:12:57.696Z,59.55
2022-10-30T13:15:26.928Z,61.04
2022-10-30T13:17:53.486Z,58.69
2022-10-30T13:20:21.646Z,59.72
2022-10-30T13:23:01.798Z,59.52
2022-10-30T13:25:28.436Z,60.11
2022-10-30T13:27:57.884Z,60.22
2022-10-30T13:30:32.197Z,60.67
2022-10-30T13:32:58.757Z,59.96
2022-10-30T13:35:31.130Z,61.86
2022-10-30T13:38:03.439Z,60.96
2022-10-30T13:40:38.849Z,59.96
2022-10-30T13:43:25.045Z,59.18
2022-10-30T13:46:04.813Z,59.11
2022-10-30T13:48:49.573Z,59.51
2022-10-30T13:51:15.915Z,61.66
2022-10-30T13:53:45.323Z,60.19
2022-10-30T13:56:15.736Z,62.52
2022-10-30T13:58:46.631Z,61.75
2022-10-30T14:01:21.457Z,62.50
2022-10-30T14:03:47.818Z,63.42
2022-10-30T14:06:33.656Z,66.82
2022-10-30T14:09:15.484Z,65.33
2022-10-30T14:11:42.002Z,67.19
2022-10-30T14:14:23.368Z,66.17
2022-10-30T14:19:17.333Z,70.10
2022-10-30T14:21:47.398Z,69.84
2022-10-30T14:24:24.627Z,70.60
2022-10-30T14:27:04.031Z,72.84
2022-10-30T14:29:30.330Z,71.79
2022-10-30T14:31:56.735Z,71.71
2022-10-30T14:34:43.294Z,71.50
2022-10-30T14:37:10.449Z,71.42
2022-10-30T14:39:39.582Z,73.31
2022-10-30T14:42:11.563Z,71.39
2022-10-30T14:44:56.312Z,73.96
2022-10-30T14:47:22.655Z,77.33
2022-10-30T14:50:01.159Z,79.15
2022-10-30T14:52:36.371Z,85.48
2022-10-30T14:55:02.738Z,86.51
2022-10-30T14:57:48.173Z,88.48
2022-10-30T15:00:23.862Z,91.51
2022-10-30T15:03:08.936Z,92.86
2022-10-30T15:05:43.245Z,93.71
2022-10-30T15:08:12.745Z,95.08
2022-10-30T15:10:48.082Z,96.15
2022-10-30T15:13:21.508Z,97.76
2022-10-30T15:16:05.422Z,99.71
2022-10-30T15:18:34.201Z,99.79
2022-10-30T15:21:04.700Z,100.00
2022-10-30T15:23:32.715Z,100.00
2022-10-30T15:26:04.924Z,100.00
2022-10-30T15:28:36.207Z,100.00
2022-10-30T15:31:17.745Z,100.00
2022-10-30T15:33:44.748Z,100.00
2022-10-30T15:36:18.452Z,100.00
2022-10-30T15:38:44.780Z,100.00
2022-10-30T15:41:11.196Z,100.00
2022-10-30T15:43:40.194Z,100.00
2022-10-30T15:46:10.205Z,100.00
2022-10-30T15:48:39.263Z,100.00
2022-10-30T15:51:15.296Z,100.00
2022-10-30T15:53:46.621Z,100.00
2022-10-30T15:56:33.259Z,100.00
2022-10-30T15:59:16.981Z,100.00
2022-10-30T16:01:44.714Z,100.00
2022-10-30T16:04:39.177Z,100.00
2022-10-30T16:07:38.974Z,100.00
2022-10-30T16:10:09.940Z,100.00
2022-10-30T16:12:36.326Z,100.00
2022-10-30T16:15:06.522Z,100.00
2022-10-30T16:17:32.863Z,100.00
2022-10-30T16:20:01.388Z,100.00
2022-10-30T16:22:29.882Z,100.00
2022-10-30T16:24:56.986Z,100.00
2022-10-30T16:27:24.214Z,100.00
2022-10-30T16:29:52.251Z,100.00
2022-10-30T16:32:20.085Z,100.00
2022-10-30T16:34:47.558Z,100.00
2022-10-30T16:37:22.491Z,100.00
2022-10-30T16:39:50.369Z,100.00
2022-10-30T16:42:26.782Z,100.00
2022-10-30T16:45:11.727Z,100.00
2022-10-30T16:47:44.171Z,100.00
2022-10-30T16:50:14.322Z,100.00
2022-10-30T16:52:49.625Z,100.00
2022-10-30T16:55:20.209Z,100.00
2022-10-30T16:57:49.063Z,100.00
2022-10-30T17:00:24.283Z,100.00
2022-10-30T17:02:54.548Z,100.00
2022-10-30T17:05:20.922Z,100.00
2022-10-30T17:08:09.204Z,100.00
2022-10-30T17:10:59.363Z,100.00
2022-10-30T17:13:34.831Z,100.00
2022-10-30T17:16:20.407Z,100.00
2022-10-30T17:18:54.174Z,100.00
2022-10-30T17:21:22.612Z,100.00
2022-10-30T17:23:50.375Z,100.00
2022-10-30T17:26:18.220Z,100.00
2022-10-30T17:28:45.459Z,100.00
2022-10-30T17:31:14.601Z,100.00
2022-10-30T17:33:41.329Z,100.00
2022-10-30T17:36:08.753Z,100.00
2022-10-30T17:38:35.216Z,100.00
2022-10-30T17:41:02.270Z,100.00
2022-10-30T17:43:29.709Z,100.00
2022-10-30T17:45:56.378Z,100.00
2022-10-30T17:48:27.258Z,100.00
2022-10-30T17:50:53.831Z,100.00
2022-10-30T17:53:23.806Z,100.00
2022-10-30T17:55:55.930Z,100.00
2022-10-30T17:58:24.240Z,100.00
2022-10-30T18:00:50.748Z,100.00
2022-10-30T18:03:17.133Z,100.00
2022-10-30T18:05:43.821Z,100.00
2022-10-30T18:08:10.139Z,100.00
2022-10-30T18:10:43.652Z,100.00
2022-10-30T18:13:12.364Z,100.00
2022-10-30T18:15:40.917Z,100.00
2022-10-30T18:18:16.162Z,100.00
2022-10-30T18:20:42.499Z,100.00
2022-10-30T18:23:46.347Z,100.00
2022-10-30T18:26:03.660Z,100.00
2022-10-30T18:28:29.980Z,100.00
2022-10-30T18:30:58.351Z,100.00
2022-10-30T18:33:25.166Z,100.00
2022-10-30T18:35:51.519Z,100.00
2022-10-30T18:38:17.912Z,100.00
2022-10-30T18:40:46.614Z,100.00
2022-10-30T18:43:13.596Z,100.00
2022-10-30T18:45:41.142Z,100.00
2022-10-30T18:48:08.450Z,100.00
2022-10-30T18:50:35.232Z,100.00
2022-10-30T18:53:02.083Z,100.00
2022-10-30T18:55:35.809Z,100.00
2022-10-30T18:58:03.484Z,100.00
2022-10-30T19:00:39.626Z,100.00
2022-10-30T19:03:17.107Z,100.00
2022-10-30T19:05:46.831Z,100.00
2022-10-30T19:08:13.619Z,100.00
2022-10-30T19:10:41.105Z,100.00
2022-10-30T19:13:12.725Z,100.00
2022-10-30T19:15:40.676Z,100.00
2022-10-30T19:18:07.338Z,100.00
2022-10-30T19:20:50.943Z,100.00
2022-10-30T19:23:21.871Z,100.00
2022-10-30T19:25:48.538Z,100.00
2022-10-30T19:28:16.183Z,100.00
2022-10-30T19:30:45.144Z,100.00
2022-10-30T19:33:11.502Z,100.00
2022-10-30T19:35:37.823Z,100.00
2022-10-30T19:38:07.934Z,100.00
2022-10-30T19:40:37.544Z,100.00
2022-10-30T19:43:05.279Z,100.00
2022-10-30T19:45:32.603Z,100.00
2022-10-30T19:48:00.122Z,100.00
2022-10-30T19:50:28.245Z,100.00
2022-10-30T19:52:57.088Z,100.00
2022-10-30T19:55:24.316Z,100.00
2022-10-30T19:57:50.778Z,100.00
2022-10-30T20:00:21.928Z,100.00
2022-10-30T20:02:48.329Z,100.00
2022-10-30T20:05:15.940Z,100.00
2022-10-30T20:07:42.916Z,100.00
2022-10-30T20:10:16.700Z,100.00
2022-10-30T20:12:43.140Z,100.00
2022-10-30T20:15:14.460Z,100.00
2022-10-30T20:17:40.877Z,100.00
2022-10-30T20:20:07.949Z,100.00
2022-10-30T20:22:34.282Z,100.00
2022-10-30T20:25:00.649Z,100.00
2022-10-30T20:27:26.976Z,100.00
2022-10-30T20:29:53.350Z,100.00
2022-10-30T20:32:19.688Z,100.00
2022-10-30T20:34:46.000Z,100.00
2022-10-30T20:37:12.425Z,100.00
2022-10-30T20:39:38.741Z,100.00
2022-10-30T20:42:06.100Z,100.00
2022-10-30T20:44:32.463Z,100.00
2022-10-30T20:46:59.785Z,100.00
2022-10-30T20:49:26.112Z,100.00
2022-10-30T20:51:52.431Z,100.00
2022-10-30T20:54:18.739Z,100.00
2022-10-30T20:56:45.317Z,100.00
2022-10-30T20:59:11.762Z,100.00
2022-10-30T21:01:38.239Z,100.00
2022-10-30T21:04:14.875Z,100.00
2022-10-30T21:06:41.318Z,100.00
2022-10-30T21:09:08.727Z,100.00
2022-10-30T21:11:35.119Z,100.00
2022-10-30T21:14:01.498Z,100.00
2022-10-30T21:16:27.808Z,100.00
2022-10-30T21:18:54.753Z,100.00
2022-10-30T21:21:25.330Z,100.00
2022-10-30T21:23:55.876Z,100.00
2022-10-30T21:26:23.156Z,100.00
2022-10-30T21:28:49.712Z,100.00
2022-10-30T21:31:19.313Z,100.00
2022-10-30T21:33:45.699Z,100.00
2022-10-30T21:36:16.840Z,100.00
2022-10-30T21:38:47.198Z,100.00
2022-10-30T21:41:15.288Z,100.00
2022-10-30T21:43:42.265Z,100.00
2022-10-30T21:46:09.502Z,100.00
2022-10-30T21:48:35.888Z,100.00
2022-10-30T21:51:21.804Z,100.00
2022-10-30T21:53:48.287Z,100.00
2022-10-30T21:56:21.975Z,100.00
2022-10-30T21:58:48.833Z,100.00
2022-10-30T22:01:17.740Z,100.00
2022-10-30T22:03:44.371Z,100.00
2022-10-30T22:06:15.330Z,100.00
2022-10-30T22:08:44.528Z,100.00
2022-10-30T22:11:11.408Z,100.00
2022-10-30T22:13:38.231Z,100.00
2022-10-30T22:16:05.463Z,100.00
2022-10-30T22:18:32.100Z,100.00
2022-10-30T22:21:00.198Z,100.00
2022-10-30T22:23:26.860Z,100.00
2022-10-30T22:25:53.856Z,100.00
2022-10-30T22:28:20.340Z,100.00
2022-10-30T22:30:46.769Z,100.00
2022-10-30T22:33:13.148Z,100.00
2022-10-30T22:35:39.529Z,100.00
2022-10-30T22:38:05.874Z,100.00
2022-10-30T22:40:32.234Z,100.00
2022-10-30T22:42:58.821Z,100.00
2022-10-30T22:45:26.485Z,100.00
2022-10-30T22:47:52.806Z,100.00
2022-10-30T22:50:23.162Z,100.00
2022-10-30T22:52:49.483Z,100.00
2022-10-30T22:55:15.845Z,100.00
2022-10-30T22:57:42.221Z,100.00
2022-10-30T23:00:09.111Z,100.00
2022-10-30T23:02:35.443Z,100.00
2022-10-30T23:05:01.804Z,100.00
2022-10-30T23:07:28.158Z,100.00
2022-10-30T23:09:54.500Z,100.00
2022-10-30T23:12:20.887Z,100.00
2022-10-30T23:14:53.080Z,100.00
2022-10-30T23:17:19.464Z,100.00
2022-10-30T23:19:45.784Z,100.00
2022-10-30T23:22:12.148Z,100.00
2022-10-30T23:24:38.552Z,100.00
2022-10-30T23:27:05.904Z,100.00
2022-10-30T23:29:32.237Z,100.00
2022-10-30T23:31:58.666Z,100.00
2022-10-30T23:34:25.028Z,100.00
2022-10-30T23:36:51.344Z,100.00
2022-10-30T23:39:18.025Z,100.00
2022-10-30T23:41:44.546Z,100.00
2022-10-30T23:44:11.696Z,100.00
2022-10-30T23:46:38.148Z,100.00
2022-10-30T23:49:04.496Z,100.00
2022-10-30T23:51:30.857Z,100.00
2022-10-30T23:53:57.386Z,100.00
2022-10-30T23:56:25.900Z,100.00
2022-10-30T23:58:52.619Z,100.00
